createdAt,value
2023-02-19T00:01:29.976Z,59.86
2023-02-19T00:03:59.579Z,60.07
2023-02-19T00:06:27.939Z,59.74
2023-02-19T00:08:54.726Z,60.37
2023-02-19T00:11:23.266Z,60.35
2023-02-19T00:13:52.715Z,60.16
2023-02-19T00:16:22.569Z,60.38
2023-02-19T00:18:49.683Z,60.55
2023-02-19T00:21:16.837Z,60.89
2023-02-19T00:23:43.592Z,60.85
2023-02-19T00:26:18.535Z,60.99
2023-02-19T00:28:46.830Z,61.04
2023-02-19T00:31:28.077Z,60.95
2023-02-19T00:33:57.407Z,60.57
2023-02-19T00:36:25.466Z,60.50
2023-02-19T00:38:52.325Z,60.15
2023-02-19T00:41:20.769Z,59.52
2023-02-19T00:44:05.652Z,60.26
2023-02-19T00:46:37.649Z,60.49
2023-02-19T00:49:06.576Z,60.40
2023-02-19T00:51:36.877Z,60.88
2023-02-19T00:54:04.465Z,60.91
2023-02-19T00:56:31.530Z,60.97
2023-02-19T00:58:58.176Z,61.10
2023-02-19T01:01:28.212Z,60.77
2023-02-19T01:03:55.260Z,61.09
2023-02-19T01:06:21.961Z,61.21
2023-02-19T01:08:48.996Z,61.35
2023-02-19T01:11:16.818Z,61.81
2023-02-19T01:13:44.005Z,62.16
2023-02-19T01:16:20.007Z,61.80
2023-02-19T01:18:48.030Z,62.52
2023-02-19T01:21:18.443Z,62.64
2023-02-19T01:23:45.329Z,63.35
2023-02-19T01:26:15.136Z,63.18
2023-02-19T01:28:42.699Z,62.86
2023-02-19T01:31:13.668Z,63.22
2023-02-19T01:33:40.411Z,63.39
2023-02-19T01:36:07.782Z,63.69
2023-02-19T01:38:34.347Z,63.64
2023-02-19T01:41:03.874Z,64.29
2023-02-19T01:43:33.687Z,64.11
2023-02-19T01:46:00.888Z,64.54
2023-02-19T01:48:38.352Z,64.83
2023-02-19T01:51:18.428Z,65.26
2023-02-19T01:53:56.596Z,65.21
2023-02-19T01:56:25.902Z,65.42
2023-02-19T01:58:53.688Z,65.98
2023-02-19T02:01:20.308Z,66.69
2023-02-19T02:03:49.541Z,66.52
2023-02-19T02:06:22.330Z,66.22
2023-02-19T02:09:16.265Z,66.50
2023-02-19T02:11:47.639Z,66.84
2023-02-19T02:14:15.226Z,67.22
2023-02-19T02:17:09.903Z,65.87
2023-02-19T02:20:07.787Z,65.95
2023-02-19T02:22:47.311Z,66.05
2023-02-19T02:25:39.899Z,66.51
2023-02-19T02:28:40.600Z,66.58
2023-02-19T02:31:14.880Z,66.26
2023-02-19T02:33:47.965Z,66.35
2023-02-19T02:36:29.132Z,66.89
2023-02-19T02:38:58.366Z,66.89
2023-02-19T02:41:25.724Z,67.12
2023-02-19T02:43:52.307Z,68.13
2023-02-19T02:46:33.032Z,68.02
2023-02-19T02:49:05.574Z,67.81
2023-02-19T02:51:46.535Z,68.20
2023-02-19T02:54:42.569Z,68.54
2023-02-19T02:57:14.926Z,68.48
2023-02-19T02:59:43.027Z,68.12
2023-02-19T03:02:18.927Z,68.14
2023-02-19T03:05:27.122Z,68.40
2023-02-19T03:07:55.986Z,68.21
2023-02-19T03:10:28.910Z,68.19
2023-02-19T03:13:17.580Z,68.09
2023-02-19T03:16:11.309Z,68.62
2023-02-19T03:19:00.718Z,69.11
2023-02-19T03:21:29.012Z,68.97
2023-02-19T03:24:15.909Z,68.67
2023-02-19T03:26:45.666Z,69.16
2023-02-19T03:29:23.099Z,69.23
2023-02-19T03:31:55.088Z,69.18
2023-02-19T03:34:31.960Z,69.06
2023-02-19T03:37:10.962Z,69.01
2023-02-19T03:39:44.368Z,68.81
2023-02-19T03:42:23.113Z,68.59
2023-02-19T03:45:18.804Z,68.73
2023-02-19T03:47:53.334Z,68.22
2023-02-19T03:50:55.149Z,68.87
2023-02-19T03:53:38.257Z,68.66
2023-02-19T03:56:10.834Z,68.60
2023-02-19T03:59:06.811Z,68.89
2023-02-19T04:01:42.481Z,68.78
2023-02-19T04:04:32.020Z,68.30
2023-02-19T04:07:01.117Z,68.66
2023-02-19T04:09:37.546Z,68.39
2023-02-19T04:12:06.466Z,69.04
2023-02-19T04:14:39.502Z,69.56
2023-02-19T04:17:13.693Z,69.57
2023-02-19T04:19:42.762Z,69.81
2023-02-19T04:22:11.366Z,70.09
2023-02-19T04:24:42.959Z,70.10
2023-02-19T04:27:10.264Z,70.42
2023-02-19T04:29:39.086Z,71.26
2023-02-19T04:32:06.392Z,70.83
2023-02-19T04:34:33.358Z,71.08
2023-02-19T04:36:59.926Z,71.32
2023-02-19T04:39:26.482Z,71.52
2023-02-19T04:41:53.040Z,72.32
2023-02-19T04:44:19.703Z,72.37
2023-02-19T04:46:46.299Z,72.42
2023-02-19T04:49:12.880Z,72.14
2023-02-19T04:51:39.862Z,72.61
2023-02-19T04:54:07.011Z,72.67
2023-02-19T04:56:33.637Z,72.78
2023-02-19T04:59:00.174Z,72.47
2023-02-19T05:01:26.895Z,72.58
2023-02-19T05:03:53.509Z,73.27
2023-02-19T05:06:20.228Z,73.20
2023-02-19T05:08:46.893Z,72.64
2023-02-19T05:11:13.682Z,73.14
2023-02-19T05:13:40.918Z,73.29
2023-02-19T05:16:13.987Z,73.26
2023-02-19T05:18:41.506Z,73.12
2023-02-19T05:21:09.002Z,73.18
2023-02-19T05:23:35.726Z,73.24
2023-02-19T05:26:13.553Z,73.79
2023-02-19T05:28:40.152Z,73.41
2023-02-19T05:31:08.901Z,73.19
2023-02-19T05:33:37.536Z,73.56
2023-02-19T05:36:07.538Z,73.80
2023-02-19T05:38:34.631Z,74.24
2023-02-19T05:41:15.699Z,74.46
2023-02-19T05:43:44.111Z,74.41
2023-02-19T05:46:12.898Z,74.66
2023-02-19T05:48:39.758Z,74.80
2023-02-19T05:51:09.077Z,74.96
2023-02-19T05:53:36.505Z,75.23
2023-02-19T05:56:03.395Z,75.30
2023-02-19T05:58:30.428Z,75.65
2023-02-19T06:00:57.220Z,76.24
2023-02-19T06:03:23.961Z,76.49
2023-02-19T06:05:50.602Z,76.17
2023-02-19T06:08:17.150Z,76.67
2023-02-19T06:10:43.804Z,76.75
2023-02-19T06:13:11.067Z,76.50
2023-02-19T06:15:38.253Z,76.37
2023-02-19T06:18:04.985Z,76.98
2023-02-19T06:20:31.565Z,76.88
2023-02-19T06:22:58.225Z,76.23
2023-02-19T06:25:24.753Z,76.33
2023-02-19T06:27:51.285Z,76.42
2023-02-19T06:30:18.138Z,76.62
2023-02-19T06:32:44.705Z,76.86
2023-02-19T06:35:11.274Z,76.62
2023-02-19T06:37:37.924Z,76.50
2023-02-19T06:40:04.793Z,75.76
2023-02-19T06:42:33.311Z,76.27
2023-02-19T06:44:59.862Z,75.96
2023-02-19T06:47:26.402Z,75.76
2023-02-19T06:49:53.054Z,75.38
2023-02-19T06:52:19.637Z,75.21
2023-02-19T06:54:46.730Z,75.77
2023-02-19T06:57:13.290Z,75.72
2023-02-19T06:59:39.922Z,75.53
2023-02-19T07:02:06.559Z,75.51
2023-02-19T07:04:33.260Z,75.08
2023-02-19T07:07:00.365Z,74.82
2023-02-19T07:09:28.611Z,75.25
2023-02-19T07:11:55.314Z,75.08
2023-02-19T07:14:22.267Z,74.86
2023-02-19T07:16:49.345Z,75.12
2023-02-19T07:19:15.988Z,74.72
2023-02-19T07:21:42.736Z,74.33
2023-02-19T07:24:10.328Z,74.44
2023-02-19T07:26:37.025Z,74.37
2023-02-19T07:29:04.349Z,74.29
2023-02-19T07:31:31.049Z,73.75
2023-02-19T07:33:57.723Z,73.28
2023-02-19T07:36:24.966Z,72.85
2023-02-19T07:38:55.691Z,73.13
2023-02-19T07:41:22.795Z,73.40
2023-02-19T07:43:49.426Z,73.43
2023-02-19T07:46:16.030Z,73.88
2023-02-19T07:48:43.388Z,73.14
2023-02-19T07:51:13.734Z,73.21
2023-02-19T07:53:40.484Z,73.46
2023-02-19T07:56:08.679Z,73.61
2023-02-19T07:58:36.135Z,73.92
2023-02-19T08:01:09.021Z,74.96
2023-02-19T08:03:37.043Z,75.23
2023-02-19T08:06:04.794Z,74.54
2023-02-19T08:08:31.374Z,75.18
2023-02-19T08:11:20.913Z,75.08
2023-02-19T08:13:52.466Z,75.67
2023-02-19T08:16:29.680Z,75.99
2023-02-19T08:19:03.808Z,77.69
2023-02-19T08:21:31.000Z,78.00
2023-02-19T08:23:58.282Z,79.53
2023-02-19T08:26:24.865Z,79.42
2023-02-19T08:28:51.429Z,79.38
2023-02-19T08:31:18.059Z,80.01
2023-02-19T08:33:44.643Z,80.22
2023-02-19T08:36:11.678Z,81.27
2023-02-19T08:38:38.724Z,80.62
2023-02-19T08:41:11.406Z,82.23
2023-02-19T08:43:39.466Z,81.77
2023-02-19T08:46:16.028Z,82.00
2023-02-19T08:48:42.638Z,81.89
2023-02-19T08:51:12.045Z,82.74
2023-02-19T08:53:39.825Z,82.97
2023-02-19T08:56:12.858Z,84.03
2023-02-19T08:58:39.740Z,85.12
2023-02-19T09:01:14.995Z,85.28
2023-02-19T09:03:42.098Z,85.38
2023-02-19T09:06:13.524Z,84.57
2023-02-19T09:08:40.079Z,85.42
2023-02-19T09:11:07.471Z,84.43
2023-02-19T09:13:34.189Z,84.74
2023-02-19T09:16:05.200Z,84.19
2023-02-19T09:18:32.470Z,84.22
2023-02-19T09:21:04.783Z,84.30
2023-02-19T09:23:35.961Z,83.46
2023-02-19T09:26:06.894Z,84.23
2023-02-19T09:28:34.019Z,83.92
2023-02-19T09:31:12.139Z,83.99
2023-02-19T09:33:42.831Z,84.14
2023-02-19T09:36:09.549Z,83.83
2023-02-19T09:38:36.115Z,83.80
2023-02-19T09:41:38.147Z,82.77
2023-02-19T09:44:09.281Z,82.30
2023-02-19T09:46:41.169Z,82.55
2023-02-19T09:49:36.220Z,83.03
2023-02-19T09:52:19.957Z,83.84
2023-02-19T09:54:47.906Z,83.32
2023-02-19T09:57:23.417Z,81.81
2023-02-19T10:00:05.359Z,82.23
2023-02-19T10:02:32.420Z,79.61
2023-02-19T10:04:59.851Z,79.63
2023-02-19T10:07:38.282Z,80.60
2023-02-19T10:10:13.618Z,75.92
2023-02-19T10:12:54.091Z,75.51
2023-02-19T10:15:28.232Z,74.03
2023-02-19T10:17:55.031Z,73.52
2023-02-19T10:20:26.659Z,73.02
2023-02-19T10:23:06.790Z,73.06
2023-02-19T10:25:35.357Z,71.45
2023-02-19T10:28:04.143Z,71.80
2023-02-19T10:30:34.895Z,72.26
2023-02-19T10:33:16.639Z,72.43
2023-02-19T10:36:06.704Z,72.42
2023-02-19T10:38:39.647Z,73.12
2023-02-19T10:41:22.823Z,73.51
2023-02-19T10:44:15.420Z,74.27
2023-02-19T10:46:45.691Z,74.25
2023-02-19T10:49:28.053Z,74.32
2023-02-19T10:51:57.083Z,73.94
2023-02-19T10:54:31.550Z,73.97
2023-02-19T10:57:30.524Z,72.75
2023-02-19T11:00:22.942Z,73.25
2023-02-19T11:03:14.115Z,72.81
2023-02-19T11:05:51.711Z,72.10
2023-02-19T11:08:23.170Z,72.59
2023-02-19T11:10:50.215Z,71.79
2023-02-19T11:13:30.986Z,71.09
2023-02-19T11:15:59.023Z,69.63
2023-02-19T11:18:28.186Z,70.52
2023-02-19T11:21:00.677Z,69.43
2023-02-19T11:23:31.179Z,69.30
2023-02-19T11:26:01.616Z,69.68
2023-02-19T11:28:34.148Z,69.97
2023-02-19T11:31:27.593Z,70.07
2023-02-19T11:34:01.112Z,70.05
2023-02-19T11:36:32.097Z,71.23
2023-02-19T11:39:00.313Z,71.79
2023-02-19T11:41:37.256Z,70.37
2023-02-19T11:44:15.929Z,71.93
2023-02-19T11:47:01.546Z,72.13
2023-02-19T11:49:40.027Z,71.88
2023-02-19T11:52:18.947Z,70.54
2023-02-19T11:55:01.226Z,69.67
2023-02-19T11:57:30.703Z,69.87
2023-02-19T12:00:16.054Z,69.88
2023-02-19T12:02:49.531Z,70.45
2023-02-19T12:05:37.968Z,70.04
2023-02-19T12:08:35.981Z,70.29
2023-02-19T12:11:19.398Z,72.00
2023-02-19T12:14:26.231Z,72.02
2023-02-19T12:17:07.416Z,69.39
2023-02-19T12:19:47.588Z,68.01
2023-02-19T12:22:20.065Z,68.02
2023-02-19T12:24:52.871Z,68.22
2023-02-19T12:27:40.966Z,67.90
2023-02-19T12:30:25.255Z,68.67
2023-02-19T12:33:18.578Z,69.75
2023-02-19T12:35:55.064Z,67.65
2023-02-19T12:38:35.219Z,67.87
2023-02-19T12:41:19.889Z,68.58
2023-02-19T12:44:04.268Z,70.91
2023-02-19T12:46:43.103Z,73.25
2023-02-19T12:49:21.808Z,73.06
2023-02-19T12:51:57.710Z,73.28
2023-02-19T12:54:38.926Z,75.08
2023-02-19T12:57:10.022Z,74.80
2023-02-19T12:59:46.367Z,76.21
2023-02-19T13:02:19.750Z,76.23
2023-02-19T13:04:56.098Z,77.20
2023-02-19T13:07:38.152Z,77.26
2023-02-19T13:10:32.216Z,78.27
2023-02-19T13:13:04.087Z,79.13
2023-02-19T13:15:35.863Z,79.21
2023-02-19T13:18:05.256Z,79.52
2023-02-19T13:20:36.173Z,79.18
2023-02-19T13:23:27.618Z,79.01
2023-02-19T13:26:20.818Z,80.73
2023-02-19T13:28:59.510Z,79.91
2023-02-19T13:31:41.963Z,80.33
2023-02-19T13:34:39.811Z,80.71
2023-02-19T13:37:07.476Z,81.96
2023-02-19T13:39:34.626Z,81.72
2023-02-19T13:42:02.216Z,83.17
2023-02-19T13:44:41.686Z,83.14
2023-02-19T13:47:46.942Z,82.84
2023-02-19T13:50:29.056Z,82.84
2023-02-19T13:52:57.260Z,83.53
2023-02-19T13:55:52.627Z,83.76
2023-02-19T13:58:34.562Z,83.58
2023-02-19T14:01:11.869Z,83.75
2023-02-19T14:03:48.085Z,82.30
2023-02-19T14:06:14.833Z,82.30
2023-02-19T14:08:58.545Z,81.93
2023-02-19T14:11:45.002Z,82.59
2023-02-19T14:14:36.228Z,83.67
2023-02-19T14:17:08.954Z,83.48
2023-02-19T14:19:42.023Z,82.42
2023-02-19T14:22:51.526Z,81.01
2023-02-19T14:25:27.284Z,81.25
2023-02-19T14:28:21.710Z,79.98
2023-02-19T14:31:09.061Z,80.04
2023-02-19T14:33:40.266Z,78.81
2023-02-19T14:36:16.641Z,79.12
2023-02-19T14:38:51.924Z,79.03
2023-02-19T14:41:19.730Z,77.63
2023-02-19T14:43:50.752Z,77.60
2023-02-19T14:46:32.891Z,77.31
2023-02-19T14:49:07.912Z,77.61
2023-02-19T14:51:41.806Z,76.96
2023-02-19T14:54:40.721Z,78.07
2023-02-19T14:57:17.489Z,78.81
2023-02-19T14:59:55.205Z,78.80
2023-02-19T15:02:22.116Z,78.11
2023-02-19T15:04:48.731Z,78.11
2023-02-19T15:07:20.267Z,77.45
2023-02-19T15:09:53.408Z,77.91
2023-02-19T15:12:46.323Z,77.88
2023-02-19T15:15:21.040Z,78.14
2023-02-19T15:17:48.423Z,78.23
2023-02-19T15:20:19.635Z,77.37
2023-02-19T15:22:46.671Z,77.19
2023-02-19T15:25:19.985Z,76.97
2023-02-19T15:27:47.409Z,76.54
2023-02-19T15:30:28.515Z,76.07
2023-02-19T15:33:00.053Z,76.45
2023-02-19T15:35:28.778Z,74.90
2023-02-19T15:37:55.813Z,74.39
2023-02-19T15:40:30.077Z,72.24
2023-02-19T15:42:58.657Z,71.99
2023-02-19T15:45:30.821Z,70.83
2023-02-19T15:48:08.261Z,70.78
2023-02-19T15:50:39.364Z,69.88
2023-02-19T15:53:09.385Z,69.92
2023-02-19T15:55:43.331Z,69.19
2023-02-19T15:58:28.288Z,68.97
2023-02-19T16:00:59.627Z,68.99
2023-02-19T16:03:28.028Z,69.76
2023-02-19T16:06:15.964Z,68.98
2023-02-19T16:08:45.532Z,70.52
2023-02-19T16:11:24.210Z,70.58
2023-02-19T16:13:51.976Z,71.46
2023-02-19T16:16:34.964Z,71.80
2023-02-19T16:19:01.872Z,74.36
2023-02-19T16:21:32.485Z,75.89
2023-02-19T16:24:13.444Z,76.76
2023-02-19T16:26:43.156Z,78.15
2023-02-19T16:29:36.276Z,73.80
2023-02-19T16:32:08.013Z,74.94
2023-02-19T16:34:43.084Z,74.49
2023-02-19T16:37:35.159Z,74.37
2023-02-19T16:40:12.929Z,73.49
2023-02-19T16:42:53.123Z,72.60
2023-02-19T16:45:19.811Z,73.50
2023-02-19T16:47:51.194Z,74.30
2023-02-19T16:50:22.215Z,74.78
2023-02-19T16:52:55.784Z,74.16
2023-02-19T16:55:22.595Z,75.06
2023-02-19T16:57:51.788Z,75.58
2023-02-19T17:00:27.301Z,75.42
2023-02-19T17:02:57.119Z,76.24
2023-02-19T17:05:27.474Z,72.56
2023-02-19T17:07:54.114Z,72.68
2023-02-19T17:10:24.629Z,71.96
2023-02-19T17:12:54.875Z,71.83
2023-02-19T17:15:22.314Z,72.23
2023-02-19T17:17:48.952Z,72.11
2023-02-19T17:20:27.671Z,72.23
2023-02-19T17:22:57.602Z,71.99
2023-02-19T17:25:24.183Z,71.08
2023-02-19T17:27:52.716Z,71.82
2023-02-19T17:30:32.723Z,70.90
2023-02-19T17:32:59.673Z,70.60
2023-02-19T17:35:26.261Z,70.59
2023-02-19T17:37:53.531Z,70.82
2023-02-19T17:40:32.630Z,70.58
2023-02-19T17:43:00.052Z,70.64
2023-02-19T17:45:26.572Z,70.73
2023-02-19T17:47:53.387Z,70.23
2023-02-19T17:50:23.214Z,70.13
2023-02-19T17:52:49.818Z,68.95
2023-02-19T17:55:18.466Z,68.23
2023-02-19T17:57:46.008Z,68.34
2023-02-19T18:00:22.180Z,68.40
2023-02-19T18:02:51.750Z,70.37
2023-02-19T18:05:20.657Z,71.12
2023-02-19T18:07:48.285Z,68.69
2023-02-19T18:10:20.408Z,68.26
2023-02-19T18:12:47.919Z,66.93
2023-02-19T18:15:21.103Z,67.35
2023-02-19T18:17:47.905Z,67.90
2023-02-19T18:20:17.285Z,67.85
2023-02-19T18:22:43.885Z,68.07
2023-02-19T18:25:11.667Z,68.02
2023-02-19T18:27:40.898Z,68.36
2023-02-19T18:30:08.278Z,68.37
2023-02-19T18:32:35.502Z,68.21
2023-02-19T18:35:05.247Z,68.43
2023-02-19T18:37:32.980Z,67.57
2023-02-19T18:40:00.555Z,68.24
2023-02-19T18:42:27.787Z,67.49
2023-02-19T18:44:55.032Z,66.51
2023-02-19T18:47:22.705Z,67.16
2023-02-19T18:49:50.476Z,66.73
2023-02-19T18:52:20.378Z,66.39
2023-02-19T18:54:48.299Z,66.48
2023-02-19T18:57:15.593Z,65.83
2023-02-19T18:59:43.182Z,64.92
2023-02-19T19:02:10.225Z,64.69
2023-02-19T19:04:38.580Z,65.26
2023-02-19T19:07:06.526Z,65.09
2023-02-19T19:09:34.010Z,65.19
2023-02-19T19:12:01.032Z,64.94
2023-02-19T19:14:27.760Z,64.82
2023-02-19T19:16:54.617Z,65.12
2023-02-19T19:19:21.664Z,65.14
2023-02-19T19:21:53.610Z,64.52
2023-02-19T19:24:21.339Z,64.24
2023-02-19T19:26:48.796Z,64.49
2023-02-19T19:29:17.253Z,63.90
2023-02-19T19:31:44.812Z,63.43
2023-02-19T19:34:12.560Z,63.06
2023-02-19T19:36:39.086Z,63.23
2023-02-19T19:39:06.016Z,62.72
2023-02-19T19:41:32.594Z,63.20
2023-02-19T19:44:02.945Z,62.92
2023-02-19T19:46:29.650Z,62.82
2023-02-19T19:48:56.236Z,62.71
2023-02-19T19:51:22.801Z,62.27
2023-02-19T19:53:49.832Z,62.63
2023-02-19T19:56:17.613Z,63.07
2023-02-19T19:58:44.304Z,62.81
2023-02-19T20:01:11.097Z,62.64
2023-02-19T20:03:38.008Z,63.46
2023-02-19T20:06:07.688Z,63.42
2023-02-19T20:08:34.297Z,62.83
2023-02-19T20:11:00.904Z,62.73
2023-02-19T20:13:30.524Z,63.00
2023-02-19T20:15:57.125Z,62.48
2023-02-19T20:18:30.546Z,62.93
2023-02-19T20:20:57.166Z,62.88
2023-02-19T20:23:23.669Z,62.68
2023-02-19T20:25:50.271Z,62.77
2023-02-19T20:28:16.852Z,63.36
2023-02-19T20:30:43.903Z,62.59
2023-02-19T20:33:10.645Z,62.83
2023-02-19T20:35:37.310Z,62.76
2023-02-19T20:38:03.916Z,63.09
2023-02-19T20:40:32.243Z,62.23
2023-02-19T20:43:00.904Z,62.59
2023-02-19T20:45:28.275Z,62.38
2023-02-19T20:47:54.834Z,62.40
2023-02-19T20:50:23.325Z,62.78
2023-02-19T20:52:50.090Z,62.73
2023-02-19T20:55:16.786Z,63.19
2023-02-19T20:57:43.450Z,62.82
2023-02-19T21:00:11.226Z,63.08
2023-02-19T21:02:39.868Z,63.01
2023-02-19T21:05:06.690Z,62.92
2023-02-19T21:07:33.341Z,63.04
2023-02-19T21:09:59.944Z,62.44
2023-02-19T21:12:26.645Z,63.18
2023-02-19T21:14:53.265Z,62.43
2023-02-19T21:17:20.093Z,63.03
2023-02-19T21:19:49.889Z,62.62
2023-02-19T21:22:16.939Z,63.21
2023-02-19T21:24:43.690Z,62.77
2023-02-19T21:27:10.398Z,63.38
2023-02-19T21:29:36.901Z,63.29
2023-02-19T21:32:03.541Z,63.15
2023-02-19T21:34:30.494Z,62.89
2023-02-19T21:36:57.502Z,62.67
2023-02-19T21:39:25.688Z,62.70
2023-02-19T21:41:52.531Z,62.96
2023-02-19T21:44:21.041Z,62.47
2023-02-19T21:46:48.445Z,62.87
2023-02-19T21:49:15.114Z,63.29
2023-02-19T21:51:43.627Z,62.35
2023-02-19T21:54:15.959Z,62.74
2023-02-19T21:56:42.827Z,62.81
2023-02-19T21:59:09.801Z,62.86
2023-02-19T22:01:42.293Z,62.69
2023-02-19T22:04:12.845Z,62.20
2023-02-19T22:06:40.495Z,61.71
2023-02-19T22:09:08.240Z,61.24
2023-02-19T22:11:35.137Z,62.00
2023-02-19T22:14:02.128Z,61.51
2023-02-19T22:16:29.305Z,61.61
2023-02-19T22:18:57.841Z,61.92
2023-02-19T22:21:27.715Z,61.97
2023-02-19T22:23:55.472Z,61.76
2023-02-19T22:26:33.473Z,62.51
2023-02-19T22:29:04.148Z,62.87
2023-02-19T22:31:32.362Z,62.65
2023-02-19T22:33:59.030Z,62.77
2023-02-19T22:36:28.690Z,62.71
2023-02-19T22:38:55.258Z,62.84
2023-02-19T22:41:22.705Z,62.95
2023-02-19T22:43:49.712Z,63.56
2023-02-19T22:46:22.248Z,64.26
2023-02-19T22:48:49.093Z,64.65
2023-02-19T22:51:18.898Z,64.38
2023-02-19T22:53:53.036Z,64.58
2023-02-19T22:56:21.312Z,65.00
2023-02-19T22:58:48.342Z,65.86
2023-02-19T23:01:15.486Z,65.75
2023-02-19T23:03:50.809Z,66.15
2023-02-19T23:06:22.231Z,66.38
2023-02-19T23:08:48.745Z,66.53
2023-02-19T23:11:22.137Z,67.07
2023-02-19T23:13:48.719Z,67.20
2023-02-19T23:16:15.791Z,67.62
2023-02-19T23:18:42.576Z,67.93
2023-02-19T23:21:10.056Z,67.89
2023-02-19T23:23:36.667Z,68.40
2023-02-19T23:26:04.754Z,68.30
2023-02-19T23:28:31.278Z,68.05
2023-02-19T23:30:58.040Z,68.23
2023-02-19T23:33:24.649Z,68.19
2023-02-19T23:35:51.307Z,67.95
2023-02-19T23:38:18.201Z,68.43
2023-02-19T23:40:45.411Z,68.55
2023-02-19T23:43:12.004Z,68.37
2023-02-19T23:45:38.561Z,68.79
2023-02-19T23:48:05.147Z,68.48
2023-02-19T23:50:31.697Z,68.95
2023-02-19T23:52:59.336Z,68.42
2023-02-19T23:55:27.129Z,68.74
2023-02-19T23:57:53.813Z,69.10
